createdAt,value
2022-09-14T00:00:16.698Z,68.3
2022-09-14T00:05:17.652Z,68.3
2022-09-14T00:10:16.493Z,68.4
2022-09-14T00:15:17.012Z,68.1
2022-09-14T00:20:16.502Z,67.9
2022-09-14T00:25:16.866Z,67.9
2022-09-14T00:30:16.735Z,68.1
2022-09-14T00:35:16.584Z,68.1
2022-09-14T00:40:16.850Z,68.2
2022-09-14T00:45:16.634Z,68.0
2022-09-14T00:50:16.636Z,68.0
2022-09-14T00:55:16.603Z,68.0
2022-09-14T01:00:17.237Z,68.1
2022-09-14T01:05:16.644Z,68.1
2022-09-14T01:10:16.677Z,68.2
2022-09-14T01:15:16.555Z,68.1
2022-09-14T01:20:16.773Z,68.2
2022-09-14T01:25:16.741Z,68.2
2022-09-14T01:30:16.811Z,68.4
2022-09-14T01:35:16.881Z,68.5
2022-09-14T01:40:17.016Z,68.5
2022-09-14T01:45:16.862Z,68.8
2022-09-14T01:50:16.808Z,69.0
2022-09-14T01:55:16.721Z,68.9
2022-09-14T02:00:17.015Z,68.8
2022-09-14T02:05:16.668Z,69.0
2022-09-14T02:10:17.013Z,69.1
2022-09-14T02:15:16.782Z,69.2
2022-09-14T02:20:16.813Z,69.2
2022-09-14T02:25:16.796Z,69.0
2022-09-14T02:30:16.911Z,69.1
2022-09-14T02:35:16.769Z,69.1
2022-09-14T02:40:17.372Z,69.2
2022-09-14T02:45:16.892Z,69.2
2022-09-14T02:50:16.928Z,69.3
2022-09-14T02:55:16.785Z,69.3
2022-09-14T03:00:16.991Z,69.2
2022-09-14T03:05:16.897Z,69.0
2022-09-14T03:10:16.815Z,68.8
2022-09-14T03:15:17.111Z,69.0
2022-09-14T03:20:16.874Z,69.1
2022-09-14T03:25:16.907Z,69.3
2022-09-14T03:30:16.886Z,69.8
2022-09-14T03:35:17.271Z,70.0
2022-09-14T03:40:21.427Z,70.0
2022-09-14T03:45:17.087Z,69.9
2022-09-14T03:50:16.967Z,69.8
2022-09-14T03:55:17.032Z,69.7
2022-09-14T04:00:18.793Z,69.7
2022-09-14T04:05:21.593Z,69.7
2022-09-14T04:10:17.931Z,69.3
2022-09-14T04:15:18.194Z,69.0
2022-09-14T04:20:18.269Z,68.8
2022-09-14T04:25:18.041Z,68.6
2022-09-14T04:30:18.174Z,68.5
2022-09-14T04:35:17.955Z,68.4
2022-09-14T04:40:17.965Z,68.3
2022-09-14T04:45:18.258Z,68.2
2022-09-14T04:50:17.975Z,68.3
2022-09-14T04:55:18.234Z,68.3
2022-09-14T05:00:18.068Z,68.2
2022-09-14T05:05:18.815Z,68.1
2022-09-14T05:10:17.971Z,68.1
2022-09-14T05:15:19.098Z,68.1
2022-09-14T05:20:18.890Z,68.1
2022-09-14T05:25:18.094Z,68.1
2022-09-14T05:30:18.543Z,68.0
2022-09-14T05:35:18.987Z,68.0
2022-09-14T05:40:18.173Z,68.0
2022-09-14T05:45:18.879Z,67.9
2022-09-14T05:50:18.135Z,67.9
2022-09-14T05:55:18.297Z,67.8
2022-09-14T06:00:18.377Z,67.8
2022-09-14T06:05:18.651Z,67.7
2022-09-14T06:10:18.172Z,67.7
2022-09-14T06:15:18.410Z,67.5
2022-09-14T06:20:18.177Z,67.5
2022-09-14T06:25:16.330Z,67.3
2022-09-14T06:30:16.136Z,67.1
2022-09-14T06:35:16.752Z,67.0
2022-09-14T06:40:16.508Z,67.0
2022-09-14T06:45:16.588Z,66.9
2022-09-14T06:50:16.196Z,66.8
2022-09-14T06:55:16.275Z,66.7
2022-09-14T07:00:16.210Z,66.6
2022-09-14T07:05:16.273Z,66.3
2022-09-14T07:10:16.528Z,66.1
2022-09-14T07:15:16.626Z,65.9
2022-09-14T07:20:16.405Z,65.8
2022-09-14T07:25:16.377Z,65.7
2022-09-14T07:30:16.483Z,65.5
2022-09-14T07:40:18.715Z,65.3
2022-09-14T07:45:16.494Z,65.2
2022-09-14T07:50:16.612Z,65.0
2022-09-14T07:55:16.845Z,64.8
2022-09-14T08:00:16.673Z,64.6
2022-09-14T08:05:16.443Z,64.5
2022-09-14T08:10:17.561Z,64.3
2022-09-14T08:15:16.783Z,64.1
2022-09-14T08:20:16.627Z,64.0
2022-09-14T08:25:16.492Z,63.9
2022-09-14T08:30:16.727Z,63.8
2022-09-14T08:35:16.684Z,63.7
2022-09-14T08:40:16.693Z,63.7
2022-09-14T08:45:16.574Z,63.6
2022-09-14T08:50:16.596Z,63.5
2022-09-14T08:55:16.585Z,63.2
2022-09-14T09:00:16.937Z,63.2
2022-09-14T09:05:16.514Z,63.1
2022-09-14T09:10:16.769Z,63.0
2022-09-14T09:15:16.669Z,62.9
2022-09-14T09:20:16.600Z,62.7
2022-09-14T09:25:16.755Z,62.7
2022-09-14T09:30:16.841Z,62.5
2022-09-14T09:35:16.839Z,62.3
2022-09-14T09:40:16.689Z,62.3
2022-09-14T09:45:16.995Z,62.3
2022-09-14T09:50:16.556Z,62.3
2022-09-14T09:55:16.943Z,62.4
2022-09-14T10:00:16.675Z,62.4
2022-09-14T10:05:16.671Z,62.3
2022-09-14T10:10:16.684Z,62.3
2022-09-14T10:15:16.854Z,62.3
2022-09-14T10:20:16.659Z,62.3
2022-09-14T10:25:16.986Z,62.3
2022-09-14T10:30:17.127Z,62.3
2022-09-14T10:35:16.885Z,62.4
2022-09-14T10:40:17.010Z,62.4
2022-09-14T10:45:16.794Z,62.6
2022-09-14T10:50:16.674Z,62.7
2022-09-14T10:55:16.724Z,62.8
2022-09-14T11:00:16.881Z,63.0
2022-09-14T11:05:16.950Z,63.2
2022-09-14T11:10:16.744Z,63.3
2022-09-14T11:15:17.199Z,63.5
2022-09-14T11:20:16.845Z,63.8
2022-09-14T11:25:16.911Z,64.0
2022-09-14T11:30:16.823Z,64.1
2022-09-14T11:35:16.996Z,64.1
2022-09-14T11:40:17.350Z,64.1
2022-09-14T11:45:17.139Z,64.3
2022-09-14T11:50:16.791Z,64.3
2022-09-14T11:55:16.893Z,64.5
2022-09-14T12:00:17.086Z,64.6
2022-09-14T12:05:16.797Z,64.9
2022-09-14T12:10:17.902Z,65.2
2022-09-14T12:15:16.918Z,65.6
2022-09-14T12:20:20.269Z,65.9
2022-09-14T12:25:16.876Z,66.3
2022-09-14T12:30:17.169Z,66.6
2022-09-14T12:35:16.950Z,66.8
2022-09-14T12:40:16.981Z,67.1
2022-09-14T12:45:17.194Z,67.5
2022-09-14T12:50:17.095Z,67.9
2022-09-14T12:55:16.935Z,68.2
2022-09-14T13:00:17.189Z,68.4
2022-09-14T13:05:17.082Z,68.8
2022-09-14T13:10:17.124Z,69.1
2022-09-14T13:15:17.067Z,69.3
2022-09-14T13:20:17.165Z,69.6
2022-09-14T13:25:17.215Z,69.8
2022-09-14T13:30:17.266Z,70.0
2022-09-14T13:35:17.094Z,70.2
2022-09-14T13:40:17.304Z,70.5
2022-09-14T13:45:17.180Z,70.8
2022-09-14T13:50:17.340Z,71.1
2022-09-14T13:55:17.168Z,71.3
2022-09-14T14:00:17.446Z,71.0
2022-09-14T14:05:17.141Z,71.3
2022-09-14T14:10:20.553Z,71.4
2022-09-14T14:15:17.399Z,71.8
2022-09-14T14:20:17.451Z,72.2
2022-09-14T14:25:17.343Z,72.4
2022-09-14T14:30:17.279Z,72.8
2022-09-14T14:35:17.272Z,73.0
2022-09-14T14:40:17.260Z,73.1
2022-09-14T14:45:17.281Z,73.5
2022-09-14T14:50:17.429Z,73.7
2022-09-14T14:55:17.249Z,73.8
2022-09-14T15:00:17.605Z,73.9
2022-09-14T15:05:17.272Z,74.3
2022-09-14T15:10:17.578Z,74.6
2022-09-14T15:15:17.627Z,75.1
2022-09-14T15:20:17.300Z,75.2
2022-09-14T15:25:17.412Z,75.4
2022-09-14T15:30:17.502Z,76.2
2022-09-14T15:35:17.904Z,76.6
2022-09-14T15:40:17.323Z,76.7
2022-09-14T15:45:17.476Z,76.4
2022-09-14T15:50:17.242Z,76.8
2022-09-14T15:55:17.512Z,76.6
2022-09-14T16:00:17.522Z,76.9
2022-09-14T16:05:17.946Z,77.3
2022-09-14T16:10:18.226Z,77.8
2022-09-14T16:15:17.586Z,77.9
2022-09-14T16:20:17.561Z,78.3
2022-09-14T16:25:17.537Z,78.8
2022-09-14T16:30:17.342Z,79.1
2022-09-14T16:35:17.636Z,79.2
2022-09-14T16:40:17.749Z,79.1
2022-09-14T16:45:18.221Z,79.2
2022-09-14T16:50:17.413Z,78.5
2022-09-14T16:55:17.593Z,78.6
2022-09-14T17:00:17.579Z,78.4
2022-09-14T17:05:17.735Z,78.0
2022-09-14T17:10:17.488Z,78.4
2022-09-14T17:15:17.838Z,79.1
2022-09-14T17:20:17.478Z,79.6
2022-09-14T17:25:17.808Z,79.8
2022-09-14T17:30:17.666Z,80.0
2022-09-14T17:35:18.447Z,79.9
2022-09-14T17:40:17.609Z,80.0
2022-09-14T17:45:17.678Z,80.1
2022-09-14T17:50:17.942Z,79.6
2022-09-14T17:55:17.691Z,79.8
2022-09-14T18:00:17.832Z,79.9
2022-09-14T18:05:17.669Z,80.0
2022-09-14T18:10:18.984Z,80.0
2022-09-14T18:15:17.779Z,80.7
2022-09-14T18:20:17.636Z,80.7
2022-09-14T18:25:17.804Z,80.5
2022-09-14T18:30:17.623Z,80.1
2022-09-14T18:35:17.729Z,80.3
2022-09-14T18:40:20.256Z,80.6
2022-09-14T18:45:17.758Z,80.5
2022-09-14T18:50:17.659Z,80.7
2022-09-14T18:55:18.149Z,80.5
2022-09-14T19:00:18.609Z,80.7
2022-09-14T19:05:17.808Z,80.5
2022-09-14T19:10:17.818Z,80.3
2022-09-14T19:15:17.936Z,80.2
2022-09-14T19:20:17.925Z,80.3
2022-09-14T19:25:17.810Z,80.5
2022-09-14T19:30:17.987Z,80.5
2022-09-14T19:35:17.835Z,80.5
2022-09-14T19:40:17.825Z,80.6
2022-09-14T19:45:18.081Z,80.7
2022-09-14T19:50:17.736Z,80.6
2022-09-14T19:55:17.842Z,80.6
2022-09-14T20:00:18.396Z,80.7
2022-09-14T20:05:17.852Z,80.7
2022-09-14T20:10:18.627Z,80.7
2022-09-14T20:15:18.012Z,80.7
2022-09-14T20:20:17.863Z,80.8
2022-09-14T20:25:17.960Z,80.6
2022-09-14T20:30:18.452Z,80.6
2022-09-14T20:35:18.156Z,80.5
2022-09-14T20:40:17.895Z,80.4
2022-09-14T20:45:18.187Z,80.3
2022-09-14T20:50:17.812Z,80.0
2022-09-14T20:55:18.363Z,79.6
2022-09-14T21:00:18.012Z,79.8
2022-09-14T21:05:17.992Z,79.7
2022-09-14T21:10:18.016Z,79.1
2022-09-14T21:15:17.968Z,79.1
2022-09-14T21:20:17.976Z,79.1
2022-09-14T21:25:17.997Z,79.2
2022-09-14T21:30:18.145Z,78.7
2022-09-14T21:35:18.045Z,78.2
2022-09-14T21:40:18.321Z,77.9
2022-09-14T21:45:18.527Z,77.4
2022-09-14T21:50:17.981Z,77.3
2022-09-14T21:55:18.069Z,77.3
2022-09-14T22:00:18.359Z,77.3
2022-09-14T22:05:18.096Z,77.2
2022-09-14T22:10:19.047Z,77.2
2022-09-14T22:15:18.331Z,77.1
2022-09-14T22:20:19.897Z,76.8
2022-09-14T22:25:18.163Z,76.6
2022-09-14T22:30:18.461Z,76.3
2022-09-14T22:35:18.238Z,75.9
2022-09-14T22:40:18.302Z,75.6
2022-09-14T22:45:18.303Z,75.4
2022-09-14T22:50:18.313Z,75.2
2022-09-14T22:55:18.388Z,75.0
2022-09-14T23:00:16.417Z,74.8
2022-09-14T23:05:16.539Z,74.6
2022-09-14T23:10:16.229Z,74.4
2022-09-14T23:15:16.603Z,74.2
2022-09-14T23:20:16.154Z,74.0
2022-09-14T23:25:16.375Z,74.0
2022-09-14T23:30:16.564Z,73.8
2022-09-14T23:35:16.555Z,73.7
2022-09-14T23:40:16.578Z,73.6
2022-09-14T23:45:16.483Z,73.5
2022-09-14T23:50:16.259Z,73.2
2022-09-14T23:55:16.280Z,73.1
